To NAV CANADA Home Page Login to a new session Search on AWWS site Feedback and Comments Disclaimer Vers la page française équivalente Tips FAQ What's new on the site To the Forecasts and Observations / NOTAM section To "File a Flight Plan" website Publications and other links Update of the User's profile FIC Telephone Numbers My Weather Data Folder Route Weather Data Regional Weather Data Local Weather Data To the Forecasts and Observations / NOTAM section
Request Generated 10/18/2017 at 03:50:57 UTC . Weather information available at that time is displayed.

METAR/TAF

WHITEHORSE/ERIK NIELSEN INTL/YT    

METAR CYXY 180300Z 18009KT 15SM FEW060 FEW120 M01/M03 A2940 RMK
SC1AC1 SLP995=
METAR CYXY 180200Z 16014KT 30SM FEW025 FEW060 SCT120 M00/M03 A2940
RMK SC1SC1AC1 SLP996=
METAR CYXY 180100Z 14007G16KT 40SM FEW025 SCT060 BKN130 00/M03 A2942
RMK SC1SC2AC3 SLP000=

TAF CYXY 172338Z 1800/1812 16010KT P6SM SCT020 BKN060 TEMPO 1800/1805
BKN020
FM180500 16010KT P6SM SCT020 TEMPO 1805/1812 FEW005 BKN020 PROB30
1807/1812 BKN005
RMK NXT FCST BY 180600Z=
Your time UTC time
Weather data provided by Environment Canada and NAV CANADA